Time;durP1;ratioP1;P1;durP2;ratioP2;P2;SDS_P1;SDS_P2;PMS_P1;PMS_P2;Temp;Humidity;BMP_temperature;BMP_pressure;BME280_temperature;BME280_humidity;BME280_pressure;Samples;Min_cycle;Max_cycle;Signal;HPM_P1;HPM_P2
2024/04/05 00:00:52;;;;;;;4.10;1.87;;;12.80;99.90;;;;;;4918432;29;20475;-72
2024/04/05 00:03:18;;;;;;;5.70;1.30;;;12.80;99.90;;;;;;4920528;29;20457;-71
2024/04/05 00:05:44;;;;;;;2.80;1.70;;;12.70;99.90;;;;;;4910985;29;21705;-72
2024/04/05 00:08:10;;;;;;;4.77;1.57;;;12.80;99.90;;;;;;4914997;29;20216;-72
2024/04/05 00:10:38;;;;;;;7.40;2.43;;;12.80;99.90;;;;;;4910250;29;20456;-74
2024/04/05 00:13:04;;;;;;;4.07;1.97;;;12.90;99.90;;;;;;4911249;29;20229;-72
2024/04/05 00:15:32;;;;;;;14.60;3.80;;;13.00;99.90;;;;;;4914011;29;20519;-72
2024/04/05 00:17:58;;;;;;;3.00;1.43;;;13.10;99.90;;;;;;4912453;29;20846;-72
2024/04/05 00:20:25;;;;;;;20.03;3.97;;;13.20;99.90;;;;;;4915544;29;20461;-72
2024/04/05 00:22:51;;;;;;;5.03;1.93;;;13.20;99.90;;;;;;4916036;29;20485;-71
2024/04/05 00:25:18;;;;;;;7.20;1.50;;;13.20;99.90;;;;;;4913831;29;20876;-72
2024/04/05 00:27:44;;;;;;;11.00;2.13;;;13.30;99.90;;;;;;4912577;29;20213;-72
2024/04/05 00:30:11;;;;;;;12.43;2.57;;;13.30;99.90;;;;;;4912663;28;20839;-71
2024/04/05 00:32:38;;;;;;;9.13;2.07;;;13.20;99.90;;;;;;4913627;29;20225;-72
2024/04/05 00:35:05;;;;;;;2.60;1.53;;;13.20;99.90;;;;;;4915674;29;20497;-71
2024/04/05 00:37:31;;;;;;;6.00;2.03;;;13.20;99.90;;;;;;4911697;29;21250;-71
2024/04/05 00:39:58;;;;;;;4.97;1.57;;;13.20;99.90;;;;;;4911696;29;20467;-72
2024/04/05 00:42:24;;;;;;;10.37;1.67;;;13.20;99.90;;;;;;4910810;29;20580;-72
2024/04/05 00:44:51;;;;;;;7.13;2.30;;;13.20;99.90;;;;;;4903853;29;20476;-72
2024/04/05 00:47:16;;;;;;;3.23;1.80;;;13.30;99.90;;;;;;4914811;29;20240;-72
2024/04/05 00:49:45;;;;;;;7.83;2.77;;;13.20;99.90;;;;;;4912862;29;20912;-72
2024/04/05 00:52:11;;;;;;;7.97;2.63;;;13.30;99.90;;;;;;4903844;29;20235;-72
2024/04/05 00:54:37;;;;;;;8.73;2.27;;;13.40;99.90;;;;;;4911328;29;20452;-72
2024/04/05 00:57:04;;;;;;;8.80;2.00;;;13.40;99.90;;;;;;4917949;29;20473;-72
2024/04/05 00:59:32;;;;;;;14.70;2.50;;;13.40;99.90;;;;;;4938127;23;20998;-67
2024/04/05 01:01:59;;;;;;;9.80;2.10;;;13.40;99.90;;;;;;4923652;28;20493;-69
2024/04/05 01:04:26;;;;;;;5.27;2.07;;;13.40;99.90;;;;;;4905748;29;20483;-69
2024/04/05 01:06:54;;;;;;;7.33;2.00;;;13.40;99.90;;;;;;4910303;29;20477;-69
2024/04/05 01:09:21;;;;;;;4.37;1.53;;;13.10;99.90;;;;;;4919588;29;20463;-68
2024/04/05 01:11:54;;;;;;;6.07;1.53;;;13.30;99.90;;;;;;4912317;29;20480;-69
2024/04/05 01:14:21;;;;;;;2.77;2.43;;;13.30;99.90;;;;;;4912194;29;20461;-69
2024/04/05 01:16:47;;;;;;;11.53;2.23;;;13.40;99.90;;;;;;4913487;29;20481;-69
2024/04/05 01:19:17;;;;;;;7.77;2.17;;;13.50;99.90;;;;;;4916494;29;20482;-69
2024/04/05 01:21:45;;;;;;;4.40;1.10;;;13.30;99.90;;;;;;4908411;29;20233;-69
2024/04/05 01:24:13;;;;;;;4.60;2.40;;;13.30;99.90;;;;;;4913370;29;20453;-69
2024/04/05 01:26:39;;;;;;;3.63;2.07;;;13.20;99.90;;;;;;4913239;29;20476;-67
2024/04/05 01:29:05;;;;;;;6.40;1.73;;;13.20;99.90;;;;;;4916440;29;20461;-68
2024/04/05 01:31:31;;;;;;;7.23;2.00;;;13.10;99.90;;;;;;4912076;29;20233;-68
2024/04/05 01:33:58;;;;;;;3.50;2.03;;;13.10;99.90;;;;;;4911331;29;20988;-67
2024/04/05 01:36:24;;;;;;;4.63;1.50;;;13.10;99.90;;;;;;4899759;29;20666;-69
2024/04/05 01:38:50;;;;;;;7.13;1.70;;;12.80;99.90;;;;;;4916541;29;20461;-68
2024/04/05 01:41:21;;;;;;;8.17;2.33;;;12.70;99.90;;;;;;4916855;29;20233;-68
2024/04/05 01:43:48;;;;;;;3.17;2.40;;;12.70;99.90;;;;;;4910451;29;21283;-68
2024/04/05 01:46:13;;;;;;;8.63;2.40;;;12.70;99.90;;;;;;4915874;29;20484;-68
2024/04/05 01:48:40;;;;;;;7.33;2.83;;;12.80;99.90;;;;;;4918250;29;20473;-68
2024/04/05 01:51:06;;;;;;;4.80;2.53;;;12.80;99.90;;;;;;4910376;29;20229;-69
2024/04/05 01:53:33;;;;;;;8.07;2.40;;;12.60;99.90;;;;;;4914881;29;20953;-68
2024/04/05 01:56:00;;;;;;;4.97;1.67;;;12.70;99.90;;;;;;4911681;29;20208;-68
2024/04/05 01:58:28;;;;;;;2.13;1.43;;;12.80;99.90;;;;;;4916103;29;20503;-68
2024/04/05 02:00:59;;;;;;;7.50;1.97;;;12.90;99.90;;;;;;4913990;29;20472;-68
2024/04/05 02:03:26;;;;;;;4.20;1.80;;;12.60;99.90;;;;;;4908412;29;20456;-68
2024/04/05 02:05:52;;;;;;;7.30;1.90;;;12.50;99.90;;;;;;4914182;29;20457;-68
2024/04/05 02:08:18;;;;;;;6.23;1.77;;;12.80;99.90;;;;;;4912462;29;20458;-69
2024/04/05 02:10:45;;;;;;;6.03;1.80;;;12.80;99.90;;;;;;4925352;29;20215;-68
2024/04/05 02:13:12;;;;;;;3.10;1.77;;;12.90;99.90;;;;;;4912713;29;20495;-67
2024/04/05 02:15:39;;;;;;;5.87;1.87;;;12.90;99.90;;;;;;4920231;28;20461;-68
2024/04/05 02:18:08;;;;;;;5.53;1.73;;;12.70;99.90;;;;;;4907943;29;20464;-68
2024/04/05 02:20:34;;;;;;;5.20;2.23;;;12.60;99.90;;;;;;4917931;29;20472;-67
2024/04/05 02:23:01;;;;;;;7.30;2.10;;;12.60;99.90;;;;;;4904343;29;20594;-67
2024/04/05 02:25:26;;;;;;;2.90;1.80;;;12.50;99.90;;;;;;4921601;29;20464;-68
2024/04/05 02:27:53;;;;;;;2.80;2.10;;;12.60;99.90;;;;;;4909696;29;20457;-67
2024/04/05 02:30:20;;;;;;;2.67;1.47;;;12.70;99.90;;;;;;4918435;29;20210;-67
2024/04/05 02:32:49;;;;;;;6.60;1.73;;;12.80;99.90;;;;;;4911582;29;20548;-67
2024/04/05 02:35:14;;;;;;;9.30;2.00;;;12.90;99.90;;;;;;4918093;29;20481;-68
2024/04/05 02:37:41;;;;;;;6.03;1.80;;;13.00;99.90;;;;;;4910509;29;20457;-68
2024/04/05 02:40:08;;;;;;;10.97;2.10;;;13.10;99.90;;;;;;4918372;29;20211;-68
2024/04/05 02:42:35;;;;;;;1.90;1.50;;;13.10;99.90;;;;;;4910664;29;20472;-67
2024/04/05 02:45:01;;;;;;;22.93;2.30;;;13.10;99.90;;;;;;4910956;29;20464;-69
2024/04/05 02:47:28;;;;;;;4.27;1.80;;;13.10;99.90;;;;;;4919078;28;20473;-68
2024/04/05 02:49:55;;;;;;;8.03;1.67;;;13.10;99.90;;;;;;4925551;29;20488;-68
2024/04/05 02:52:22;;;;;;;8.50;1.83;;;13.10;99.90;;;;;;4912953;29;20477;-68
2024/04/05 02:54:48;;;;;;;5.53;2.30;;;13.30;99.90;;;;;;4919312;29;20477;-68
2024/04/05 02:57:15;;;;;;;6.93;2.97;;;13.30;99.90;;;;;;4919581;29;20453;-68
2024/04/05 02:59:41;;;;;;;5.40;3.07;;;13.30;99.90;;;;;;4920558;29;20472;-68
2024/04/05 03:02:07;;;;;;;12.20;2.47;;;13.30;99.90;;;;;;4917671;29;20576;-68
2024/04/05 03:04:33;;;;;;;6.17;2.23;;;13.20;99.90;;;;;;4913610;29;20213;-68
2024/04/05 03:07:01;;;;;;;8.63;1.87;;;13.20;99.90;;;;;;4919085;29;20449;-68
2024/04/05 03:09:28;;;;;;;5.43;2.03;;;13.30;99.90;;;;;;4919733;29;20672;-68
2024/04/05 03:11:54;;;;;;;4.93;1.67;;;13.20;99.90;;;;;;4920877;29;20480;-67
2024/04/05 03:14:20;;;;;;;3.43;1.90;;;13.20;99.90;;;;;;4917793;29;21008;-67
2024/04/05 03:16:47;;;;;;;4.83;1.90;;;13.30;99.90;;;;;;4913660;29;20587;-67
2024/04/05 03:19:13;;;;;;;2.00;1.60;;;13.30;99.90;;;;;;4903909;29;20210;-67
2024/04/05 03:21:40;;;;;;;4.87;1.50;;;13.30;99.90;;;;;;4909399;29;21114;-67
2024/04/05 03:24:07;;;;;;;5.00;2.27;;;13.40;99.90;;;;;;4918694;29;20259;-67
2024/04/05 03:26:36;;;;;;;8.97;2.00;;;13.40;99.90;;;;;;4907554;29;20487;-67
2024/04/05 03:29:03;;;;;;;1.63;1.27;;;13.40;99.90;;;;;;4912948;29;20465;-68
2024/04/05 03:31:29;;;;;;;2.23;1.67;;;13.50;99.90;;;;;;4906969;29;20507;-67
2024/04/05 03:33:55;;;;;;;1.73;1.40;;;13.50;99.90;;;;;;4907305;29;20496;-67
2024/04/05 03:36:22;;;;;;;8.53;1.27;;;13.40;99.90;;;;;;4912609;29;21162;-67
2024/04/05 03:38:49;;;;;;;4.57;1.70;;;13.50;99.90;;;;;;4913326;29;20469;-68
2024/04/05 03:41:21;;;;;;;3.13;1.70;;;13.50;99.90;;;;;;4904950;29;20504;-69
2024/04/05 03:43:50;;;;;;;19.77;2.20;;;13.60;99.90;;;;;;4906999;29;20962;-68
2024/04/05 03:46:16;;;;;;;3.03;1.83;;;13.60;99.90;;;;;;4905938;29;20464;-68
2024/04/05 03:48:43;;;;;;;2.20;1.60;;;13.60;99.90;;;;;;4914357;29;21000;-67
2024/04/05 03:51:09;;;;;;;1.40;1.00;;;13.60;99.90;;;;;;4913501;29;20229;-67
2024/04/05 03:53:36;;;;;;;3.50;2.27;;;13.60;99.90;;;;;;4915001;29;20576;-67
2024/04/05 03:56:02;;;;;;;12.23;2.00;;;13.60;99.90;;;;;;4914991;29;20216;-67
2024/04/05 03:58:30;;;;;;;2.57;1.80;;;13.50;99.90;;;;;;4912077;29;21005;-68
2024/04/05 04:00:57;;;;;;;6.63;1.90;;;13.50;99.90;;;;;;4923996;28;20231;-68
2024/04/05 04:03:24;;;;;;;6.63;2.33;;;13.50;99.90;;;;;;4917439;29;20449;-69
2024/04/05 04:05:50;;;;;;;3.60;2.20;;;13.60;99.90;;;;;;4913551;29;20465;-69
2024/04/05 04:08:16;;;;;;;2.20;1.50;;;13.60;99.90;;;;;;4915605;29;20464;-69
2024/04/05 04:10:42;;;;;;;3.00;1.80;;;13.60;99.90;;;;;;4921082;29;20346;-67
2024/04/05 04:13:09;;;;;;;4.30;2.20;;;13.70;99.90;;;;;;4906679;29;20492;-68
2024/04/05 04:15:36;;;;;;;3.83;1.43;;;13.80;99.90;;;;;;4917964;29;20205;-69
2024/04/05 04:18:03;;;;;;;3.57;1.50;;;13.70;99.90;;;;;;4917197;29;20977;-69
2024/04/05 04:20:29;;;;;;;2.57;1.40;;;13.70;99.90;;;;;;4923575;29;20450;-67
2024/04/05 04:22:56;;;;;;;6.03;1.90;;;13.70;99.90;;;;;;4919775;29;20476;-68
2024/04/05 04:25:22;;;;;;;7.83;3.53;;;13.80;99.90;;;;;;4917416;29;20662;-67
2024/04/05 04:27:49;;;;;;;2.70;1.47;;;13.80;99.90;;;;;;4910554;29;20457;-67
2024/04/05 04:30:14;;;;;;;3.27;1.63;;;13.80;99.90;;;;;;4921896;28;20253;-69
2024/04/05 04:32:42;;;;;;;4.87;1.93;;;13.90;99.90;;;;;;4916941;29;20488;-67
2024/04/05 04:35:09;;;;;;;3.00;1.13;;;13.90;99.90;;;;;;4911298;29;20209;-68
2024/04/05 04:37:36;;;;;;;5.70;1.93;;;13.90;99.90;;;;;;4917675;29;20799;-68
2024/04/05 04:40:02;;;;;;;6.10;1.87;;;13.90;99.90;;;;;;4910861;29;20477;-68
2024/04/05 04:42:29;;;;;;;10.53;1.90;;;13.90;99.90;;;;;;4913029;29;20499;-68
2024/04/05 04:44:56;;;;;;;3.87;1.40;;;13.90;99.90;;;;;;4917170;29;20464;-68
2024/04/05 04:47:24;;;;;;;7.30;2.27;;;13.90;99.90;;;;;;4918844;29;20472;-69
2024/04/05 04:49:52;;;;;;;4.00;2.20;;;14.00;99.90;;;;;;4916002;29;20515;-68
2024/04/05 04:52:18;;;;;;;5.90;1.73;;;13.90;99.90;;;;;;4909921;29;20516;-68
2024/04/05 04:54:44;;;;;;;6.13;2.23;;;13.90;99.90;;;;;;4917250;29;20489;-68
2024/04/05 04:57:11;;;;;;;6.37;2.27;;;14.00;99.90;;;;;;4915411;29;21047;-68
2024/04/05 04:59:37;;;;;;;5.60;2.93;;;14.00;99.90;;;;;;4924482;28;21161;-68
2024/04/05 05:02:04;;;;;;;3.30;0.90;;;14.00;99.90;;;;;;4927287;29;20477;-68
2024/04/05 05:04:30;;;;;;;1.97;1.10;;;14.00;99.90;;;;;;4923595;29;20472;-68
2024/04/05 05:06:58;;;;;;;3.77;2.60;;;13.90;99.90;;;;;;4920884;29;20453;-68
2024/04/05 05:09:24;;;;;;;3.53;1.63;;;13.90;99.90;;;;;;4928016;29;20209;-67
2024/04/05 05:11:51;;;;;;;0.90;0.60;;;13.80;99.90;;;;;;4920618;28;20612;-67
2024/04/05 05:14:17;;;;;;;0.90;0.60;;;13.80;99.90;;;;;;4911607;28;20516;-68
2024/04/05 05:16:44;;;;;;;0.90;0.60;;;13.80;99.90;;;;;;4916186;29;20468;-67
2024/04/05 05:19:10;;;;;;;3.27;1.90;;;13.80;99.90;;;;;;4917649;29;20232;-68
2024/04/05 05:21:37;;;;;;;5.33;1.50;;;13.80;99.90;;;;;;4912731;29;20992;-69
2024/04/05 05:24:05;;;;;;;4.97;1.80;;;13.70;99.90;;;;;;4916440;29;20209;-69
2024/04/05 05:26:32;;;;;;;4.00;2.20;;;13.80;99.90;;;;;;4911295;29;20511;-68
2024/04/05 05:28:58;;;;;;;8.50;3.60;;;13.60;99.90;;;;;;4918645;29;20468;-69
2024/04/05 05:31:24;;;;;;;8.27;2.60;;;13.50;99.90;;;;;;4913314;28;20485;-69
2024/04/05 05:33:50;;;;;;;8.80;4.50;;;13.50;99.90;;;;;;4920132;29;20225;-69
2024/04/05 05:36:17;;;;;;;6.90;2.13;;;13.50;99.90;;;;;;4908050;29;20457;-68
2024/04/05 05:38:43;;;;;;;4.57;2.00;;;13.50;99.90;;;;;;4919032;29;20822;-68
2024/04/05 05:41:11;;;;;;;4.30;1.70;;;13.70;99.90;;;;;;4918196;29;20487;-69
2024/04/05 05:43:37;;;;;;;2.07;1.73;;;13.80;99.90;;;;;;4918411;29;20209;-70
2024/04/05 05:46:04;;;;;;;7.13;2.13;;;13.60;99.90;;;;;;4914687;29;20465;-69
2024/04/05 05:48:30;;;;;;;3.77;2.83;;;13.50;99.90;;;;;;4916703;29;20312;-69
2024/04/05 05:50:57;;;;;;;7.20;2.17;;;13.50;99.90;;;;;;4919784;29;20460;-69
2024/04/05 05:53:23;;;;;;;6.27;3.43;;;13.60;99.90;;;;;;4913791;29;20840;-69
2024/04/05 05:55:50;;;;;;;8.53;2.87;;;13.50;99.90;;;;;;4916068;29;20464;-69
2024/04/05 05:58:18;;;;;;;4.80;2.03;;;13.30;99.90;;;;;;4920740;29;20208;-69
2024/04/05 06:00:45;;;;;;;4.10;1.80;;;13.30;99.90;;;;;;4921685;29;20469;-69
2024/04/05 06:03:11;;;;;;;4.90;2.13;;;13.20;99.90;;;;;;4919193;29;20464;-69
2024/04/05 06:05:40;;;;;;;5.70;1.90;;;13.50;99.90;;;;;;4921357;29;21159;-69
2024/04/05 06:08:07;;;;;;;4.40;1.97;;;13.60;99.90;;;;;;4918263;29;20973;-69
2024/04/05 06:10:34;;;;;;;2.77;1.70;;;13.50;99.90;;;;;;4925459;29;20476;-69
2024/04/05 06:13:01;;;;;;;3.80;2.13;;;13.60;99.90;;;;;;4916167;29;20485;-69
2024/04/05 06:15:29;;;;;;;2.77;1.90;;;13.80;99.90;;;;;;4914965;29;20473;-69
2024/04/05 06:17:55;;;;;;;2.20;1.77;;;13.80;99.90;;;;;;4922267;29;20564;-69
2024/04/05 06:20:22;;;;;;;4.17;1.80;;;13.70;99.90;;;;;;4920495;28;20456;-70
2024/04/05 06:22:48;;;;;;;3.50;2.37;;;13.70;99.90;;;;;;4915913;29;20315;-70
2024/04/05 06:25:15;;;;;;;6.20;2.57;;;13.70;99.90;;;;;;4921850;29;21012;-69
2024/04/05 06:27:41;;;;;;;7.97;1.80;;;13.70;99.90;;;;;;4919250;29;20655;-69
2024/04/05 06:30:11;;;;;;;2.70;2.47;;;13.90;99.90;;;;;;4923384;29;20837;-69
2024/04/05 06:32:38;;;;;;;7.60;2.20;;;14.00;99.90;;;;;;4920085;29;20488;-69
2024/04/05 06:35:06;;;;;;;13.33;2.50;;;14.10;99.90;;;;;;4920189;29;20492;-68
2024/04/05 06:37:33;;;;;;;2.60;1.50;;;14.50;99.90;;;;;;4919852;29;20465;-69
2024/04/05 06:40:00;;;;;;;10.23;2.00;;;14.70;99.90;;;;;;4921992;28;20456;-69
2024/04/05 06:42:27;;;;;;;3.20;1.80;;;14.80;99.90;;;;;;4921286;29;21275;-69
2024/04/05 06:44:54;;;;;;;5.40;2.00;;;14.40;99.90;;;;;;4916992;29;20494;-69
2024/04/05 06:47:21;;;;;;;12.67;1.77;;;14.20;99.90;;;;;;4920141;29;20472;-69
2024/04/05 06:49:49;;;;;;;6.83;2.60;;;14.20;99.90;;;;;;4929076;28;20448;-69
2024/04/05 06:52:15;;;;;;;4.40;2.40;;;14.40;99.90;;;;;;4926578;29;21027;-69
2024/04/05 06:54:43;;;;;;;7.60;2.23;;;14.80;99.90;;;;;;4929979;29;20574;-68
2024/04/05 06:57:09;;;;;;;6.77;2.07;;;15.10;99.90;;;;;;4924457;29;20461;-68
2024/04/05 06:59:36;;;;;;;4.63;2.10;;;15.70;99.90;;;;;;4925500;29;20824;-68
2024/04/05 07:02:03;;;;;;;5.60;2.47;;;15.50;99.90;;;;;;4930912;29;20689;-69
2024/04/05 07:04:30;;;;;;;7.53;3.13;;;15.40;99.90;;;;;;4923935;29;21178;-69
2024/04/05 07:06:57;;;;;;;9.33;2.50;;;15.50;99.90;;;;;;4919826;29;20452;-69
2024/04/05 07:09:24;;;;;;;9.20;3.87;;;15.50;99.90;;;;;;4925027;29;20488;-69
2024/04/05 07:11:50;;;;;;;5.53;3.70;;;15.40;99.90;;;;;;4930301;29;20553;-69
2024/04/05 07:14:18;;;;;;;11.67;2.50;;;15.30;99.90;;;;;;4922675;29;20489;-69
2024/04/05 07:16:44;;;;;;;10.37;1.90;;;15.30;99.90;;;;;;4917918;29;20473;-69
2024/04/05 07:19:11;;;;;;;4.03;3.30;;;15.40;99.90;;;;;;4921740;29;20464;-69
2024/04/05 07:21:37;;;;;;;13.73;2.90;;;15.50;99.90;;;;;;4918887;29;20485;-69
2024/04/05 07:24:06;;;;;;;1.70;1.10;;;15.60;99.90;;;;;;4914456;29;20487;-69
2024/04/05 07:26:32;;;;;;;2.40;1.73;;;15.60;99.90;;;;;;4920938;29;20243;-69
2024/04/05 07:28:59;;;;;;;1.97;1.33;;;15.70;99.90;;;;;;4920679;29;20454;-69
2024/04/05 07:31:25;;;;;;;2.07;1.43;;;15.90;99.90;;;;;;4916655;29;20492;-69
2024/04/05 07:33:52;;;;;;;5.10;2.00;;;16.10;99.90;;;;;;4919320;29;20834;-69
2024/04/05 07:36:18;;;;;;;2.60;1.57;;;15.90;99.90;;;;;;4916218;29;20213;-69
2024/04/05 07:38:45;;;;;;;5.57;1.70;;;15.90;99.90;;;;;;4923029;29;20977;-69
2024/04/05 07:41:12;;;;;;;5.47;1.50;;;16.00;99.90;;;;;;4920009;29;20225;-69
2024/04/05 07:43:38;;;;;;;4.80;1.60;;;16.00;99.90;;;;;;4914552;29;20472;-69
2024/04/05 07:46:04;;;;;;;1.53;1.40;;;16.10;99.90;;;;;;4913402;29;20492;-69
2024/04/05 07:48:31;;;;;;;1.73;1.50;;;16.00;99.90;;;;;;4916201;29;20461;-69
2024/04/05 07:50:58;;;;;;;2.97;1.60;;;15.80;99.90;;;;;;4916208;29;20215;-69
2024/04/05 07:53:25;;;;;;;1.73;1.30;;;15.80;99.90;;;;;;4913860;29;20457;-68
2024/04/05 07:55:51;;;;;;;5.63;1.90;;;15.50;99.90;;;;;;4912147;29;21347;-68
2024/04/05 07:58:19;;;;;;;1.97;1.10;;;15.40;99.90;;;;;;4915799;29;20568;-69
2024/04/05 08:00:45;;;;;;;2.50;1.70;;;15.40;99.90;;;;;;4911432;29;20476;-69
2024/04/05 08:03:15;;;;;;;1.70;1.47;;;15.60;99.90;;;;;;4915757;29;20980;-69
2024/04/05 08:05:41;;;;;;;3.90;2.00;;;15.70;99.90;;;;;;4919552;29;20468;-69
2024/04/05 08:08:09;;;;;;;1.90;1.70;;;15.70;99.90;;;;;;4915687;29;20468;-69
2024/04/05 08:10:35;;;;;;;2.50;1.27;;;15.80;99.90;;;;;;4911607;29;20208;-69
2024/04/05 08:13:02;;;;;;;3.67;2.23;;;15.80;99.90;;;;;;4912470;29;20899;-69
2024/04/05 08:15:31;;;;;;;7.70;1.87;;;16.10;99.90;;;;;;4912305;29;20611;-69
2024/04/05 08:17:57;;;;;;;8.10;3.10;;;16.30;99.90;;;;;;4916385;29;20464;-69
2024/04/05 08:20:23;;;;;;;3.00;1.70;;;16.40;99.90;;;;;;4922819;29;20471;-70
2024/04/05 08:22:50;;;;;;;5.97;2.00;;;16.40;99.90;;;;;;4916835;29;21008;-70
2024/04/05 08:25:16;;;;;;;3.90;1.50;;;16.80;99.90;;;;;;4915166;29;20208;-68
2024/04/05 08:27:44;;;;;;;3.93;2.00;;;16.90;99.90;;;;;;4922151;29;20453;-68
2024/04/05 08:30:12;;;;;;;3.33;1.50;;;16.80;99.90;;;;;;4919768;28;20483;-68
2024/04/05 08:32:40;;;;;;;2.90;1.90;;;16.70;99.90;;;;;;4914754;29;20476;-70
2024/04/05 08:35:06;;;;;;;6.73;2.10;;;16.70;99.90;;;;;;4915391;28;20499;-69
2024/04/05 08:37:33;;;;;;;2.93;1.30;;;16.50;99.90;;;;;;4909655;29;20464;-69
2024/04/05 08:39:59;;;;;;;12.30;3.40;;;16.60;99.90;;;;;;4912701;29;20473;-69
2024/04/05 08:42:30;;;;;;;11.07;3.93;;;16.50;99.90;;;;;;4912263;29;20480;-69
2024/04/05 08:44:56;;;;;;;3.90;2.10;;;16.40;99.90;;;;;;4917225;29;20200;-69
2024/04/05 08:47:25;;;;;;;4.20;2.03;;;16.50;99.90;;;;;;4913338;29;20461;-69
2024/04/05 08:49:54;;;;;;;4.33;2.30;;;16.50;99.90;;;;;;4921911;29;20208;-69
2024/04/05 08:52:21;;;;;;;4.67;1.93;;;16.50;99.90;;;;;;4928446;29;21325;-68
2024/04/05 08:54:48;;;;;;;6.17;2.40;;;16.40;99.90;;;;;;4928009;29;20493;-68
2024/04/05 08:57:16;;;;;;;2.63;1.77;;;16.30;99.90;;;;;;4920653;29;20812;-69
2024/04/05 08:59:48;;;;;;;1.40;1.20;;;16.40;99.90;;;;;;4922840;29;20469;-69
2024/04/05 09:02:17;;;;;;;7.80;1.77;;;16.60;99.90;;;;;;4920185;29;20484;-69
2024/04/05 09:04:42;;;;;;;4.97;1.80;;;16.70;99.90;;;;;;4916782;29;20480;-69
2024/04/05 09:07:11;;;;;;;5.17;1.50;;;16.80;99.90;;;;;;4919095;29;20449;-68
2024/04/05 09:09:37;;;;;;;4.37;1.60;;;16.90;99.90;;;;;;4922917;29;20216;-69
2024/04/05 09:12:07;;;;;;;4.30;1.87;;;16.90;99.90;;;;;;4919044;29;20481;-68
2024/04/05 09:14:36;;;;;;;2.13;1.47;;;16.90;99.90;;;;;;4908315;29;20489;-69
2024/04/05 09:17:04;;;;;;;1.63;1.53;;;17.00;99.90;;;;;;4916421;29;20976;-69
2024/04/05 09:19:31;;;;;;;2.80;1.70;;;16.90;99.90;;;;;;4921698;29;20477;-69
2024/04/05 09:21:58;;;;;;;1.47;1.13;;;16.70;99.90;;;;;;4922571;29;20479;-69
2024/04/05 09:24:25;;;;;;;3.23;3.03;;;16.60;99.90;;;;;;4922775;29;20471;-69
2024/04/05 09:27:00;;;;;;;3.50;1.03;;;16.50;99.90;;;;;;4921297;29;20460;-69
2024/04/05 09:29:26;;;;;;;3.97;2.27;;;16.40;99.90;;;;;;4921320;29;20464;-70
2024/04/05 09:31:54;;;;;;;3.80;1.63;;;16.60;99.90;;;;;;4919244;29;20488;-69
2024/04/05 09:34:25;;;;;;;4.10;2.03;;;16.70;99.90;;;;;;4912496;29;20496;-69
2024/04/05 09:36:52;;;;;;;9.87;1.83;;;17.00;99.90;;;;;;4913011;29;20793;-69
2024/04/05 09:39:21;;;;;;;4.60;1.50;;;17.00;99.90;;;;;;4916995;29;20471;-69
2024/04/05 09:41:49;;;;;;;2.47;1.47;;;17.00;99.90;;;;;;4916952;29;20572;-69
2024/04/05 09:44:17;;;;;;;1.97;1.20;;;17.10;99.90;;;;;;4916381;29;20482;-69
2024/04/05 09:46:44;;;;;;;2.23;1.57;;;17.20;99.90;;;;;;4926493;29;20453;-69
2024/04/05 09:49:11;;;;;;;1.00;0.80;;;17.00;99.90;;;;;;4923313;29;21004;-69
2024/04/05 09:51:44;;;;;;;2.20;1.33;;;17.00;99.90;;;;;;4920754;29;20966;-69
2024/04/05 09:54:11;;;;;;;1.10;0.70;;;17.20;99.90;;;;;;4917273;29;20515;-69
2024/04/05 09:56:38;;;;;;;3.60;1.50;;;17.40;99.90;;;;;;4920107;29;20608;-69
2024/04/05 09:59:08;;;;;;;7.27;3.03;;;17.20;99.90;;;;;;4920709;29;20644;-69
2024/04/05 10:01:35;;;;;;;3.67;1.13;;;17.10;99.90;;;;;;4918082;29;20480;-69
2024/04/05 10:04:03;;;;;;;3.37;1.63;;;17.30;99.90;;;;;;4912808;29;20462;-69
2024/04/05 10:06:38;;;;;;;0.90;0.80;;;17.20;99.90;;;;;;4916512;29;20464;-69
2024/04/05 10:09:15;;;;;;;2.20;1.00;;;17.30;99.90;;;;;;4916978;29;20494;-69
2024/04/05 10:11:42;;;;;;;0.93;0.60;;;17.30;99.90;;;;;;4918930;28;20479;-69
2024/04/05 10:14:10;;;;;;;1.03;0.70;;;17.20;99.90;;;;;;4917780;29;20493;-69
2024/04/05 10:16:37;;;;;;;7.70;1.13;;;17.20;99.90;;;;;;4916104;29;20465;-69
2024/04/05 10:19:10;;;;;;;3.97;0.73;;;17.20;99.90;;;;;;4916780;29;20587;-69
2024/04/05 10:21:37;;;;;;;0.90;0.60;;;17.30;99.90;;;;;;4915519;29;20546;-70
2024/04/05 10:24:05;;;;;;;15.10;1.27;;;17.30;99.90;;;;;;4918449;29;20806;-69
2024/04/05 10:26:33;;;;;;;1.20;1.07;;;17.20;99.90;;;;;;4925034;29;20754;-69
2024/04/05 10:29:04;;;;;;;1.00;0.70;;;17.20;99.90;;;;;;4921777;29;20469;-69
2024/04/05 10:31:33;;;;;;;0.90;0.60;;;17.00;99.90;;;;;;4916345;29;21084;-69
2024/04/05 10:34:00;;;;;;;1.67;1.57;;;16.90;99.90;;;;;;4916271;29;20467;-68
2024/04/05 10:36:28;;;;;;;0.90;0.70;;;16.90;99.90;;;;;;4920353;29;20468;-69
2024/04/05 10:38:54;;;;;;;0.90;0.60;;;16.90;99.90;;;;;;4919399;29;20916;-68
2024/04/05 10:41:21;;;;;;;3.00;1.23;;;16.90;99.90;;;;;;4918437;29;20482;-69
2024/04/05 10:43:47;;;;;;;0.90;0.60;;;16.80;99.90;;;;;;4916305;29;20207;-69
2024/04/05 10:46:15;;;;;;;0.90;0.60;;;16.90;99.90;;;;;;4928046;29;20531;-70
2024/04/05 10:48:42;;;;;;;0.90;0.60;;;17.10;99.90;;;;;;4919659;29;20578;-70
2024/04/05 10:51:09;;;;;;;0.90;0.60;;;17.20;99.90;;;;;;4926370;29;20568;-69
2024/04/05 10:53:35;;;;;;;0.90;0.50;;;17.30;99.90;;;;;;4922634;29;20471;-69
2024/04/05 10:56:03;;;;;;;0.90;0.60;;;17.50;99.90;;;;;;4924130;29;20487;-69
2024/04/05 10:58:29;;;;;;;0.90;0.60;;;17.60;99.90;;;;;;4926918;29;20697;-69
2024/04/05 11:00:55;;;;;;;0.90;0.60;;;17.60;99.90;;;;;;4923199;29;20511;-70
2024/04/05 11:03:21;;;;;;;1.00;0.70;;;17.60;99.90;;;;;;4927956;29;20223;-71
2024/04/05 11:05:50;;;;;;;0.90;0.60;;;17.70;99.90;;;;;;4926397;29;20819;-69
2024/04/05 11:08:17;;;;;;;0.90;0.60;;;17.60;99.90;;;;;;4917779;29;20469;-69
2024/04/05 11:10:44;;;;;;;0.90;0.60;;;17.60;99.90;;;;;;4924842;29;20524;-69
2024/04/05 11:13:15;;;;;;;0.90;0.60;;;17.70;99.90;;;;;;4922234;29;20515;-69
2024/04/05 11:15:43;;;;;;;0.90;0.60;;;17.60;99.90;;;;;;4912088;29;20503;-69
2024/04/05 11:18:10;;;;;;;0.90;0.60;;;17.60;99.90;;;;;;4913458;29;20969;-69
2024/04/05 11:20:39;;;;;;;1.53;1.37;;;17.60;99.90;;;;;;4919372;29;20472;-69
2024/04/05 11:23:14;;;;;;;5.17;1.50;;;17.30;99.90;;;;;;4915034;29;20489;-69
2024/04/05 11:25:41;;;;;;;0.90;0.60;;;17.40;99.90;;;;;;4921970;29;20448;-69
2024/04/05 11:28:14;;;;;;;1.00;0.83;;;17.50;99.90;;;;;;4918381;29;21052;-69
2024/04/05 11:30:41;;;;;;;1.30;1.17;;;17.60;99.90;;;;;;4920160;29;20509;-69
2024/04/05 11:33:07;;;;;;;0.90;0.60;;;17.70;99.90;;;;;;4917452;28;20499;-69
2024/04/05 11:35:34;;;;;;;0.90;0.60;;;17.90;99.90;;;;;;4916712;29;20806;-69
2024/04/05 11:38:00;;;;;;;0.90;0.60;;;18.00;99.90;;;;;;4911484;29;20720;-70
2024/04/05 11:40:28;;;;;;;1.00;0.70;;;18.00;99.90;;;;;;4917091;29;20472;-69
2024/04/05 11:42:54;;;;;;;1.40;1.17;;;18.10;99.90;;;;;;4920553;29;20231;-69
2024/04/05 11:45:21;;;;;;;0.90;0.60;;;18.10;99.90;;;;;;4919298;29;20835;-68
2024/04/05 11:47:47;;;;;;;9.50;2.07;;;18.10;99.90;;;;;;4916315;29;20469;-69
2024/04/05 11:50:14;;;;;;;1.93;1.30;;;18.20;99.90;;;;;;4916052;29;20467;-68
2024/04/05 11:52:40;;;;;;;4.83;1.40;;;18.20;99.90;;;;;;4912478;29;20760;-69
2024/04/05 11:55:10;;;;;;;2.33;1.27;;;18.20;99.90;;;;;;4921134;29;20491;-69
2024/04/05 11:57:37;;;;;;;5.13;1.80;;;18.10;99.90;;;;;;4919374;29;20460;-69
2024/04/05 12:00:05;;;;;;;3.73;1.60;;;18.10;99.90;;;;;;4921297;29;20481;-69
2024/04/05 12:02:31;;;;;;;2.20;1.30;;;18.10;99.90;;;;;;4924308;29;20487;-70
2024/04/05 12:04:57;;;;;;;1.00;0.70;;;18.00;99.90;;;;;;4919714;29;21214;-70
2024/04/05 12:07:24;;;;;;;1.40;0.97;;;18.00;99.90;;;;;;4920783;29;20235;-69
2024/04/05 12:09:51;;;;;;;0.90;0.60;;;18.10;99.90;;;;;;4917100;29;20508;-69
2024/04/05 12:12:28;;;;;;;5.53;2.03;;;18.10;99.90;;;;;;5032775;27;20674;-69
2024/04/05 12:14:54;;;;;;;4.40;1.20;;;18.50;99.90;;;;;;5009767;28;20456;-69
2024/04/05 12:17:21;;;;;;;1.83;1.00;;;18.80;99.90;;;;;;5011179;28;21034;-70
2024/04/05 12:19:47;;;;;;;1.80;1.13;;;18.90;99.90;;;;;;5007619;28;20233;-69
2024/04/05 12:22:14;;;;;;;3.10;1.63;;;18.90;99.90;;;;;;5008313;28;20565;-71
2024/04/05 12:24:40;;;;;;;4.50;1.07;;;18.90;99.90;;;;;;5009653;28;20456;-69
2024/04/05 12:27:07;;;;;;;7.60;2.77;;;18.80;99.90;;;;;;5016838;28;20771;-69
2024/04/05 12:29:34;;;;;;;2.27;1.00;;;18.90;99.90;;;;;;5011154;28;20210;-70
2024/04/05 12:32:01;;;;;;;5.23;1.60;;;19.10;99.90;;;;;;5029013;28;20495;-72
2024/04/05 12:34:27;;;;;;;2.90;1.03;;;19.20;99.90;;;;;;5016596;28;20568;-70
2024/04/05 12:36:54;;;;;;;2.43;1.43;;;19.10;99.90;;;;;;5007188;28;20460;-70
2024/04/05 12:39:24;;;;;;;1.67;1.20;;;18.90;99.90;;;;;;5008766;28;20225;-69
2024/04/05 12:41:54;;;;;;;1.83;1.10;;;18.80;99.90;;;;;;5024642;28;20482;-70
2024/04/05 12:44:20;;;;;;;1.70;1.30;;;18.60;99.90;;;;;;5016526;28;20524;-70